Duluth, MN (55811)

5:55 PM CDT on July 26, 2016 (GMT -0500)
Duluth International | | Change Station

Elev 1427 ft 46.84 °N, 92.19 °W | Updated 1 hour ago

Scattered Clouds
Scattered Clouds
79 °F
Feels Like 79 °F
N
6
Wind Variable Wind from WNW

Today
High -- | Low -- °F
--% Chance of Precip.
Yesterday
High -- | Low -- °F
Precip. -- in
Pressure 29.95 in
Visibility 10.0 miles
Clouds Few 5000 ft
Scattered Clouds 11000 ft
Scattered Clouds 12000 ft
Dew Point 67 °F
Humidity 66%
Rainfall 0.02 in
Snow Depth Not available.
5:42 AM 8:47 PM
Waning Gibbous, 50% visible
METAR KDLH 262155Z 29005KT 10SM FEW050 SCT110 SCT120 26/19 A2997 RMK AO2 RAB36E47 SLP142 P0000 T02610194
Pressure 29.95 in
Visibility 10.0 miles
Clouds Few 5000 ft
Scattered Clouds 11000 ft
Scattered Clouds 12000 ft
Dew Point 67 °F
Humidity 66%
Rainfall 0.02 in
Snow Depth Not available.
5:42 AM 8:47 PM
Waning Gibbous, 50% visible
METAR KDLH 262155Z 29005KT 10SM FEW050 SCT110 SCT120 26/19 A2997 RMK AO2 RAB36E47 SLP142 P0000 T02610194

10-Day Weather Forecast

Almanac

Astronomy

Jul. 26, 2016 Rise Set
Actual Time
Civil Twilight
Nautical Twilight
Astronomical Twilight
Moon
Length of Visible Light
Length of Day
Tomorrow will be .
, % of the Moon is Illuminated

Today's Extremes

State Highs State Lows

Community

WunderPhotos

Upload Photos

1,927,728 photos uploaded!

WunderBlog® & News

Nearby

Air Quality

  Air Quality AQ Index Pollutant
Not available.

Snow Depth

Station Depth Elevation

Earthquake Activity

City Distance Mag. Time & Date
Minimum magnitude displayed is 2.5.

Coastal Water Temperatures

Place Temperature

Stations

Nearby Weather Stations

Station Location Temp. Windchill Dew Point Humidity Wind Precip. Elev Updated Type
                   

Watches & Warnings

There are currently no watches in effect.